createdAt,value
2019-02-18T00:04:16.783Z,3.8
2019-02-18T00:05:16.717Z,3.8
2019-02-18T00:06:16.827Z,3.7
2019-02-18T00:07:16.731Z,3.7
2019-02-18T00:08:16.633Z,3.7
2019-02-18T00:09:16.540Z,3.7
2019-02-18T00:10:16.735Z,3.6
2019-02-18T00:11:16.623Z,3.6
2019-02-18T00:12:16.539Z,3.5
2019-02-18T00:13:16.418Z,3.5
2019-02-18T00:14:16.739Z,3.4
2019-02-18T00:15:16.649Z,3.4
2019-02-18T00:16:16.529Z,3.4
2019-02-18T00:24:15.448Z,3.8
2019-02-18T00:25:15.356Z,3.8
2019-02-18T00:26:16.240Z,3.7
2019-02-18T00:27:16.130Z,3.7
2019-02-18T00:28:16.020Z,3.6
2019-02-18T00:29:15.898Z,3.6
2019-02-18T00:30:15.810Z,3.6
2019-02-18T00:31:15.712Z,3.6
2019-02-18T00:32:15.606Z,3.5
2019-02-18T00:33:15.532Z,3.5
2019-02-18T00:34:18.840Z,3.4
2019-02-18T00:35:18.758Z,3.4
2019-02-18T00:36:18.662Z,3.4
2019-02-18T00:37:25.293Z,3.4
2019-02-18T00:38:25.397Z,3.3
2019-02-18T00:39:25.272Z,3.3
2019-02-18T00:40:25.176Z,3.3
2019-02-18T00:41:25.066Z,3.3
2019-02-18T00:42:24.999Z,3.2
2019-02-18T00:43:24.917Z,3.2
2019-02-18T00:44:25.446Z,3.2
2019-02-18T00:45:25.351Z,3.2
2019-02-18T00:46:25.225Z,3.2
2019-02-18T00:47:25.148Z,3.2
2019-02-18T00:48:25.202Z,3.1
2019-02-18T00:49:25.070Z,3.1
2019-02-18T00:50:25.030Z,3.1
2019-02-18T00:51:24.928Z,3.2
2019-02-18T00:52:24.820Z,3.2
2019-02-18T00:53:24.718Z,3.1
2019-02-18T00:54:25.102Z,3.1
2019-02-18T00:55:25.090Z,3.1
2019-02-18T01:30:33.857Z,4.1
2019-02-18T01:34:37.085Z,4.2
2019-02-18T01:35:36.984Z,4.1
2019-02-18T01:36:36.888Z,4
2019-02-18T01:37:46.791Z,4
2019-02-18T01:38:46.696Z,3.9
2019-02-18T01:39:46.574Z,3.8
2019-02-18T01:40:49.593Z,3.7
2019-02-18T01:41:49.514Z,3.7
2019-02-18T01:42:49.411Z,3.6
2019-02-18T01:43:49.298Z,3.6
2019-02-18T01:44:52.520Z,3.5
2019-02-18T01:45:52.408Z,3.5
2019-02-18T01:46:52.320Z,3.4
2019-02-18T01:47:52.199Z,3.4
2019-02-18T01:48:52.090Z,3.4
2019-02-18T01:49:55.016Z,3.3
2019-02-18T01:50:54.903Z,3.3
2019-02-18T01:51:54.868Z,3.3
2019-02-18T01:52:54.806Z,3.2
2019-02-18T01:53:54.698Z,3.2
2019-02-18T01:54:55.241Z,3.2
2019-02-18T01:55:55.128Z,3.1
2019-02-18T01:56:55.028Z,3.1
2019-02-18T01:57:54.930Z,3.1
2019-02-18T01:58:54.818Z,3.1
2019-02-18T01:59:54.696Z,3.1
2019-02-18T02:00:54.596Z,3.1
2019-02-18T02:01:54.480Z,3
2019-02-18T02:02:54.452Z,3.1
2019-02-18T02:03:54.335Z,3
2019-02-18T02:04:54.773Z,3
2019-02-18T02:05:54.659Z,3
2019-02-18T02:06:54.552Z,2.9
2019-02-18T02:07:57.304Z,3
2019-02-18T02:08:57.214Z,2.9
2019-02-18T02:09:57.120Z,2.9
2019-02-18T02:10:57.000Z,2.9
2019-02-18T02:11:56.877Z,2.9
2019-02-18T02:12:56.776Z,2.9
2019-02-18T02:13:56.681Z,2.9
2019-02-18T02:14:59.702Z,2.9
2019-02-18T02:15:59.959Z,2.9
2019-02-18T02:16:59.858Z,2.9
2019-02-18T02:17:59.788Z,2.8
2019-02-18T02:18:59.706Z,2.9
2019-02-18T02:20:02.554Z,2.8
2019-02-18T02:21:02.469Z,2.8
2019-02-18T02:22:02.467Z,2.8
2019-02-18T02:23:02.350Z,2.8
2019-02-18T02:24:02.269Z,2.8
2019-02-18T02:25:02.622Z,2.8
2019-02-18T02:26:02.518Z,2.8
2019-02-18T02:27:02.424Z,2.8
2019-02-18T02:28:02.303Z,2.8
2019-02-18T02:29:02.200Z,2.8
2019-02-18T02:30:02.131Z,2.8
2019-02-18T02:31:02.455Z,2.8
2019-02-18T02:32:02.408Z,2.8
2019-02-18T02:33:02.312Z,2.8
2019-02-18T02:34:02.478Z,2.8
2019-02-18T02:35:02.844Z,2.8
2019-02-18T02:36:02.720Z,2.8
2019-02-18T02:37:02.690Z,2.8
2019-02-18T02:38:08.803Z,2.8
2019-02-18T02:39:08.750Z,2.8
2019-02-18T02:40:09.747Z,2.8
2019-02-18T02:41:09.693Z,2.8
2019-02-18T02:42:09.617Z,2.8
2019-02-18T02:43:09.570Z,2.7
2019-02-18T02:44:09.503Z,2.7
2019-02-18T02:45:09.843Z,2.7
2019-02-18T02:55:08.978Z,3.3
2019-02-18T02:56:08.901Z,3.3
2019-02-18T02:57:09.045Z,3.3
2019-02-18T02:58:08.929Z,3.2
2019-02-18T02:59:08.818Z,3.2
2019-02-18T03:00:08.737Z,3.2
2019-02-18T03:01:08.662Z,3.1
2019-02-18T03:02:08.568Z,3.1
2019-02-18T03:03:08.466Z,3
2019-02-18T03:04:08.391Z,3
2019-02-18T03:05:08.739Z,3
2019-02-18T03:06:08.632Z,3
2019-02-18T03:07:08.516Z,2.9
2019-02-18T03:08:21.380Z,2.9
2019-02-18T03:09:21.256Z,2.9
2019-02-18T03:10:21.183Z,2.9
2019-02-18T03:11:21.072Z,2.9
2019-02-18T03:12:21.057Z,2.9
2019-02-18T03:13:20.998Z,2.8
2019-02-18T03:14:20.919Z,2.8
2019-02-18T03:15:21.271Z,2.8
2019-02-18T03:16:21.173Z,2.7
2019-02-18T03:17:21.090Z,2.7
2019-02-18T03:18:21.006Z,2.7
2019-02-18T03:19:20.894Z,2.7
2019-02-18T03:20:20.800Z,2.7
2019-02-18T03:21:20.690Z,2.7
2019-02-18T03:22:20.574Z,2.7
2019-02-18T03:23:23.182Z,2.7
2019-02-18T03:24:25.911Z,2.6
2019-02-18T03:25:26.256Z,2.6
2019-02-18T03:26:26.164Z,2.6
2019-02-18T03:27:26.067Z,2.6
2019-02-18T03:28:25.979Z,2.6
2019-02-18T03:29:25.883Z,2.6
2019-02-18T03:30:25.821Z,2.6
2019-02-18T03:31:26.043Z,2.6
2019-02-18T03:32:25.969Z,2.6
2019-02-18T03:33:25.911Z,2.6
2019-02-18T03:34:25.819Z,2.6
2019-02-18T03:35:26.112Z,2.6
2019-02-18T03:36:26.033Z,2.6
2019-02-18T03:37:26.105Z,2.6
2019-02-18T03:38:32.578Z,2.6
2019-02-18T03:39:32.480Z,2.6
2019-02-18T03:40:35.456Z,2.5
2019-02-18T03:41:35.348Z,2.6
2019-02-18T03:42:35.217Z,2.5
2019-02-18T03:43:35.115Z,2.6
2019-02-18T03:44:35.009Z,2.5
2019-02-18T03:45:36.344Z,2.5
2019-02-18T03:46:36.215Z,2.5
2019-02-18T03:47:36.195Z,2.5
2019-02-18T03:48:36.088Z,2.5
2019-02-18T03:49:35.979Z,2.5
2019-02-18T03:50:35.898Z,2.5
2019-02-18T03:51:35.828Z,2.5
2019-02-18T03:52:35.784Z,2.5
2019-02-18T03:53:35.723Z,2.5
2019-02-18T03:54:35.601Z,2.5
2019-02-18T03:55:35.877Z,2.4
2019-02-18T03:56:35.809Z,2.5
2019-02-18T04:05:34.116Z,3
2019-02-18T04:06:34.002Z,2.9
2019-02-18T04:07:33.937Z,2.9
2019-02-18T04:08:43.847Z,2.9
2019-02-18T04:09:43.731Z,2.9
2019-02-18T04:10:43.659Z,2.8
2019-02-18T04:11:43.560Z,2.8
2019-02-18T04:12:43.452Z,2.7
2019-02-18T04:13:43.473Z,2.7
2019-02-18T04:14:43.354Z,2.7
2019-02-18T04:15:43.650Z,2.6
2019-02-18T04:16:43.562Z,2.6
2019-02-18T04:17:43.458Z,2.6
2019-02-18T04:18:43.345Z,2.6
2019-02-18T04:19:43.229Z,2.6
2019-02-18T04:20:43.124Z,2.6
2019-02-18T04:21:43.059Z,2.6
2019-02-18T04:22:42.933Z,2.6
2019-02-18T04:23:42.861Z,2.6
2019-02-18T04:24:42.780Z,2.6
2019-02-18T04:25:43.080Z,2.6
2019-02-18T04:26:43.063Z,2.6
2019-02-18T04:35:42.415Z,3.1
2019-02-18T04:36:42.549Z,3.1
2019-02-18T04:37:42.477Z,3
2019-02-18T04:38:53.516Z,3
2019-02-18T04:39:54.617Z,2.9
2019-02-18T04:40:54.503Z,2.9
2019-02-18T04:41:54.466Z,2.8
2019-02-18T04:42:54.405Z,2.8
2019-02-18T04:43:54.327Z,2.8
2019-02-18T04:44:54.230Z,2.8
2019-02-18T04:45:54.561Z,2.7
2019-02-18T04:46:54.435Z,2.7
2019-02-18T04:47:54.337Z,2.7
2019-02-18T04:48:54.227Z,2.6
2019-02-18T04:49:54.104Z,2.6
2019-02-18T04:50:53.981Z,2.6
2019-02-18T04:51:53.852Z,2.5
2019-02-18T04:52:53.764Z,2.5
2019-02-18T04:53:53.691Z,2.5
2019-02-18T04:54:53.585Z,2.5
2019-02-18T04:55:53.909Z,2.5
2019-02-18T04:56:53.814Z,2.4
2019-02-18T05:05:52.136Z,3
2019-02-18T05:06:52.019Z,3
2019-02-18T05:07:51.975Z,2.9
2019-02-18T05:08:51.913Z,2.9
2019-02-18T05:09:51.868Z,2.8
2019-02-18T05:10:51.757Z,2.8
2019-02-18T05:11:51.642Z,2.8
2019-02-18T05:12:51.551Z,2.7
2019-02-18T05:13:51.490Z,2.7
2019-02-18T05:14:51.383Z,2.6
2019-02-18T05:15:51.738Z,2.6
2019-02-18T05:16:51.607Z,2.6
2019-02-18T05:25:49.925Z,3
2019-02-18T05:26:49.819Z,3
2019-02-18T05:27:49.718Z,2.9
2019-02-18T05:28:49.630Z,2.9
2019-02-18T05:29:49.553Z,2.9
2019-02-18T05:30:49.504Z,2.8
2019-02-18T05:31:49.539Z,2.8
2019-02-18T05:32:49.430Z,2.7
2019-02-18T05:33:49.328Z,2.7
2019-02-18T05:34:49.233Z,2.6
2019-02-18T05:35:49.565Z,2.6
2019-02-18T05:36:49.473Z,2.6
2019-02-18T05:37:49.404Z,2.5
2019-02-18T05:38:49.343Z,2.5
2019-02-18T05:39:49.241Z,2.4
2019-02-18T05:40:49.169Z,2.4
2019-02-18T05:41:49.091Z,2.4
2019-02-18T05:42:49.001Z,2.3
2019-02-18T05:43:48.947Z,2.3
2019-02-18T05:44:48.897Z,2.2
2019-02-18T05:45:49.269Z,2.2
2019-02-18T05:46:49.229Z,2.3
2019-02-18T05:47:49.173Z,2.3
2019-02-18T05:48:49.104Z,2.3
2019-02-18T05:49:49.009Z,2.3
2019-02-18T05:50:48.923Z,2.3
2019-02-18T05:51:48.967Z,2.3
2019-02-18T05:52:48.894Z,2.3
2019-02-18T05:53:48.806Z,2.3
2019-02-18T05:54:48.755Z,2.2
2019-02-18T05:55:49.090Z,2.2
2019-02-18T05:56:49.093Z,2.2
2019-02-18T05:57:49.078Z,2.2
2019-02-18T05:58:49.006Z,2.2
2019-02-18T05:59:48.911Z,2.2
2019-02-18T06:00:48.801Z,2.2
2019-02-18T06:01:48.743Z,2.2
2019-02-18T06:02:48.655Z,2.2
2019-02-18T06:03:48.553Z,2.2
2019-02-18T06:04:48.503Z,2.2
2019-02-18T06:05:48.901Z,2.1
2019-02-18T06:06:48.834Z,2.1
2019-02-18T06:07:48.715Z,2.1
2019-02-18T06:08:48.609Z,2.1
2019-02-18T06:09:48.503Z,2.1
2019-02-18T06:10:48.384Z,2.1
2019-02-18T06:11:48.294Z,2.1
2019-02-18T06:12:48.196Z,2.1
2019-02-18T06:13:48.150Z,2
2019-02-18T06:14:48.057Z,2
2019-02-18T06:15:48.376Z,2
2019-02-18T06:16:48.272Z,2
2019-02-18T06:17:48.196Z,2.1
2019-02-18T06:18:48.108Z,2
2019-02-18T06:19:47.981Z,2
2019-02-18T06:20:47.946Z,2
2019-02-18T06:21:47.833Z,2
2019-02-18T06:22:47.727Z,2.1
2019-02-18T06:23:47.649Z,2
2019-02-18T06:24:47.518Z,2
2019-02-18T06:25:47.881Z,2.1
2019-02-18T06:35:46.015Z,2.7
2019-02-18T06:36:45.927Z,2.7
2019-02-18T06:37:45.833Z,2.7
2019-02-18T06:38:45.741Z,2.7
2019-02-18T06:39:45.680Z,2.7
2019-02-18T06:40:45.589Z,2.6
2019-02-18T06:41:45.507Z,2.6
2019-02-18T06:42:45.412Z,2.6
2019-02-18T06:43:45.288Z,2.5
2019-02-18T06:44:45.184Z,2.5
2019-02-18T06:45:45.506Z,2.4
2019-02-18T06:46:45.408Z,2.4
2019-02-18T06:47:45.404Z,2.4
2019-02-18T06:48:45.316Z,2.4
2019-02-18T06:49:45.242Z,2.3
2019-02-18T06:50:45.132Z,2.3
2019-02-18T06:51:45.026Z,2.3
2019-02-18T06:52:44.917Z,2.3
2019-02-18T06:53:44.822Z,2.2
2019-02-18T06:54:44.704Z,2.2
2019-02-18T06:55:45.064Z,2.2
2019-02-18T06:56:44.958Z,2.2
2019-02-18T06:57:44.862Z,2.2
2019-02-18T06:58:44.750Z,2.2
2019-02-18T06:59:44.654Z,2.2
2019-02-18T07:00:44.557Z,2.3
2019-02-18T07:01:44.460Z,2.3
2019-02-18T07:02:44.402Z,2.2
2019-02-18T07:03:44.274Z,2.3
2019-02-18T07:04:44.174Z,2.3
2019-02-18T07:05:44.582Z,2.3
2019-02-18T07:06:44.500Z,2.4
2019-02-18T07:07:44.393Z,2.4
2019-02-18T07:08:44.296Z,2.5
2019-02-18T07:09:52.162Z,2.6
2019-02-18T07:10:52.054Z,2.7
2019-02-18T07:11:51.948Z,2.7
2019-02-18T07:12:51.864Z,2.8
2019-02-18T07:13:51.736Z,2.8
2019-02-18T07:14:51.621Z,2.9
2019-02-18T07:15:51.922Z,3
2019-02-18T07:16:51.822Z,3
2019-02-18T07:17:51.754Z,3.1
2019-02-18T07:18:51.659Z,3.1
2019-02-18T07:19:51.558Z,3.2
2019-02-18T07:20:51.448Z,3.3
2019-02-18T07:21:51.335Z,3.3
2019-02-18T07:22:51.214Z,3.4
2019-02-18T07:23:51.106Z,3.5
2019-02-18T07:24:50.991Z,3.5
2019-02-18T07:25:51.331Z,3.5
2019-02-18T07:26:51.265Z,5.9
2019-02-18T07:27:51.180Z,3.8
2019-02-18T07:35:49.700Z,4.7
2019-02-18T07:36:49.575Z,4.7
2019-02-18T07:37:49.470Z,4.7
2019-02-18T07:38:49.348Z,4.8
2019-02-18T07:39:49.235Z,4.8
2019-02-18T07:40:49.206Z,4.8
2019-02-18T07:41:49.096Z,4.9
2019-02-18T07:42:49.005Z,5.1
2019-02-18T07:43:48.890Z,5.1
2019-02-18T07:44:48.798Z,5.1
2019-02-18T07:45:49.165Z,5.1
2019-02-18T07:46:49.046Z,5.2
2019-02-18T07:47:48.946Z,5.3
2019-02-18T07:48:48.860Z,5.4
2019-02-18T07:49:48.754Z,5.5
2019-02-18T07:50:48.646Z,5.6
2019-02-18T07:51:48.542Z,5.6
2019-02-18T07:52:48.455Z,5.7
2019-02-18T07:53:48.375Z,5.7
2019-02-18T07:54:48.275Z,5.7
2019-02-18T07:55:48.576Z,5.8
2019-02-18T07:56:48.482Z,5.8
2019-02-18T07:57:48.376Z,5.9
2019-02-18T07:58:48.300Z,6
2019-02-18T07:59:48.191Z,6.1
2019-02-18T08:00:48.080Z,6.2
2019-02-18T08:01:47.960Z,6.3
2019-02-18T08:02:47.858Z,6.2
2019-02-18T08:03:47.762Z,6.3
2019-02-18T08:04:47.656Z,6.4
2019-02-18T08:05:47.986Z,6.4
2019-02-18T08:06:47.896Z,6.4
2019-02-18T08:07:47.812Z,6.4
2019-02-18T08:08:47.718Z,6.6
2019-02-18T08:09:47.626Z,6.6
2019-02-18T08:10:47.516Z,6.6
2019-02-18T08:11:47.416Z,6.6
2019-02-18T08:12:47.332Z,6.7
2019-02-18T08:13:47.224Z,6.8
2019-02-18T08:14:47.150Z,6.9
2019-02-18T08:15:47.471Z,6.9
2019-02-18T08:16:47.392Z,7
2019-02-18T08:17:47.288Z,7.1
2019-02-18T08:18:47.196Z,7.2
2019-02-18T08:19:47.140Z,7.3
2019-02-18T08:20:47.128Z,7.3
2019-02-18T08:21:47.026Z,7.4
2019-02-18T08:22:46.967Z,7.3
2019-02-18T08:23:46.872Z,7.1
2019-02-18T08:24:46.784Z,7.1
2019-02-18T08:25:47.093Z,6.9
2019-02-18T08:26:47.020Z,7
2019-02-18T08:27:46.955Z,7.1
2019-02-18T08:28:46.858Z,7.2
2019-02-18T08:29:46.778Z,7.3
2019-02-18T08:30:46.679Z,7.4
2019-02-18T08:31:46.576Z,7.6
2019-02-18T08:32:46.492Z,7.5
2019-02-18T08:33:46.378Z,7.6
2019-02-18T08:34:46.291Z,7.6
2019-02-18T08:35:46.613Z,7.7
2019-02-18T08:36:46.510Z,7.8
2019-02-18T08:37:46.397Z,7.9
2019-02-18T08:38:46.294Z,8
2019-02-18T08:39:46.197Z,8.1
2019-02-18T08:40:46.089Z,8.2
2019-02-18T08:41:45.989Z,8.3
2019-02-18T08:42:45.884Z,8.3
2019-02-18T08:43:45.780Z,8.3
2019-02-18T08:44:45.692Z,8.4
2019-02-18T08:45:46.010Z,8.4
2019-02-18T08:46:45.903Z,8.5
2019-02-18T08:47:45.779Z,8.5
2019-02-18T08:48:45.675Z,8.5
2019-02-18T08:49:45.631Z,8.6
2019-02-18T08:50:45.543Z,8.6
2019-02-18T08:51:45.451Z,8.5
2019-02-18T08:52:45.348Z,8.5
2019-02-18T08:53:45.261Z,8.5
2019-02-18T08:54:57.444Z,8.5
2019-02-18T08:55:57.775Z,8.4
2019-02-18T08:56:57.674Z,8.4
2019-02-18T08:57:57.568Z,8.4
2019-02-18T08:58:57.455Z,8.4
2019-02-18T08:59:57.371Z,8.5
2019-02-18T09:01:03.478Z,8.6
2019-02-18T09:02:03.427Z,8.6
2019-02-18T09:03:03.325Z,8.7
2019-02-18T09:04:03.220Z,8.9
2019-02-18T09:05:03.237Z,8.9
2019-02-18T09:06:03.743Z,8.9
2019-02-18T09:07:03.653Z,9
2019-02-18T09:08:03.555Z,9.2
2019-02-18T09:09:03.463Z,9.3
2019-02-18T09:10:03.379Z,9.3
2019-02-18T09:11:03.290Z,9.4
2019-02-18T09:12:03.214Z,9.5
2019-02-18T09:13:03.119Z,9.5
2019-02-18T09:14:03.024Z,9.6
2019-02-18T09:15:02.923Z,9.5
2019-02-18T09:16:03.241Z,9.5
2019-02-18T09:17:03.173Z,9.5
2019-02-18T09:18:03.055Z,9.6
2019-02-18T09:19:03.036Z,9.6
2019-02-18T09:20:02.947Z,9.7
2019-02-18T09:21:02.849Z,9.7
2019-02-18T09:22:02.787Z,9.7
2019-02-18T09:23:02.706Z,9.7
2019-02-18T09:24:02.612Z,9.8
2019-02-18T09:25:02.525Z,9.8
2019-02-18T09:26:02.859Z,9.7
2019-02-18T09:27:02.756Z,9.7
2019-02-18T09:28:02.653Z,9.6
2019-02-18T09:29:02.551Z,9.7
2019-02-18T09:30:02.586Z,9.7
2019-02-18T09:31:02.489Z,9.8
2019-02-18T09:32:02.387Z,9.9
2019-02-18T09:33:02.320Z,9.9
2019-02-18T09:34:02.237Z,9.9
2019-02-18T09:35:02.916Z,9.8
2019-02-18T09:36:03.236Z,9.7
2019-02-18T09:37:03.143Z,9.8
2019-02-18T09:38:03.059Z,9.7
2019-02-18T09:39:02.977Z,9.8
2019-02-18T09:40:02.896Z,9.7
2019-02-18T09:41:02.786Z,9.7
2019-02-18T09:42:02.698Z,9.7
2019-02-18T09:43:02.699Z,9.7
2019-02-18T09:44:02.595Z,9.7
2019-02-18T09:45:02.525Z,9.7
2019-02-18T09:46:02.825Z,9.7
2019-02-18T09:47:02.763Z,9.8
2019-02-18T09:48:02.657Z,9.8
2019-02-18T09:49:02.576Z,9.8
2019-02-18T09:50:02.505Z,9.8
2019-02-18T09:51:02.416Z,9.9
2019-02-18T09:52:02.304Z,10
2019-02-18T09:53:03.171Z,10
2019-02-18T09:54:03.078Z,10.1
2019-02-18T09:55:03.001Z,10.1
2019-02-18T09:56:03.335Z,10.2
2019-02-18T09:57:03.231Z,10.3
2019-02-18T09:58:03.115Z,10.3
2019-02-18T09:59:03.020Z,10.3
2019-02-18T10:00:02.950Z,10.3
2019-02-18T10:01:02.867Z,10.4
2019-02-18T10:02:02.758Z,10.4
2019-02-18T10:03:02.680Z,10.5
2019-02-18T10:04:02.582Z,10.5
2019-02-18T10:05:02.601Z,10.5
2019-02-18T10:06:03.153Z,10.4
2019-02-18T10:07:03.053Z,10.5
2019-02-18T10:08:02.942Z,10.4
2019-02-18T10:09:02.860Z,10.5
2019-02-18T10:10:05.321Z,10.5
2019-02-18T10:11:05.225Z,10.6
2019-02-18T10:12:05.116Z,10.5
2019-02-18T10:13:05.005Z,10.5
2019-02-18T10:14:04.904Z,10.4
2019-02-18T10:15:04.813Z,10.4
2019-02-18T10:16:05.163Z,10.4
2019-02-18T10:17:05.108Z,10.4
2019-02-18T10:18:04.980Z,10.5
2019-02-18T10:19:04.917Z,10.6
2019-02-18T10:20:04.813Z,10.6
2019-02-18T10:21:04.719Z,10.6
2019-02-18T10:22:04.657Z,10.6
2019-02-18T10:23:04.577Z,10.7
2019-02-18T10:24:04.518Z,10.7
2019-02-18T10:25:04.435Z,10.7
2019-02-18T10:26:04.742Z,10.8
2019-02-18T10:27:04.631Z,10.8
2019-02-18T10:28:04.525Z,10.9
2019-02-18T10:29:04.412Z,10.9
2019-02-18T10:30:04.332Z,10.9
2019-02-18T10:31:04.232Z,10.9
2019-02-18T10:32:04.151Z,10.9
2019-02-18T10:33:04.051Z,10.9
2019-02-18T10:34:03.943Z,10.9
2019-02-18T10:35:03.824Z,11
2019-02-18T10:36:04.190Z,10.9
2019-02-18T10:37:04.101Z,10.9
2019-02-18T10:38:03.990Z,11
2019-02-18T10:39:03.879Z,11
2019-02-18T10:40:03.813Z,11.1
2019-02-18T10:41:07.761Z,11.1
2019-02-18T10:42:07.743Z,11.2
2019-02-18T10:43:07.631Z,11.2
2019-02-18T10:44:07.532Z,11.2
2019-02-18T10:45:07.445Z,11.2
2019-02-18T10:46:07.911Z,11.2
2019-02-18T10:47:08.288Z,11.2
2019-02-18T10:48:08.861Z,11.2
2019-02-18T10:49:23.781Z,11.1
2019-02-18T10:50:24.629Z,11.2
2019-02-18T10:51:24.603Z,11.3
2019-02-18T10:52:24.598Z,11.2
2019-02-18T10:53:24.573Z,11.2
2019-02-18T10:54:24.599Z,11.2
2019-02-18T10:55:24.574Z,11.2
2019-02-18T10:56:24.993Z,11.3
2019-02-18T10:57:25.578Z,11.3
2019-02-18T10:58:26.677Z,11.3
2019-02-18T10:59:26.593Z,11.3
2019-02-18T11:00:26.529Z,11.2
2019-02-18T11:01:26.470Z,11.2
2019-02-18T11:02:26.466Z,11.2
2019-02-18T11:03:26.392Z,11.1
2019-02-18T11:04:26.327Z,11
2019-02-18T11:05:26.945Z,11
2019-02-18T11:06:28.968Z,11
2019-02-18T11:07:28.871Z,11
2019-02-18T11:08:28.798Z,11
2019-02-18T11:09:28.703Z,11.1
2019-02-18T11:10:28.588Z,11.1
2019-02-18T11:11:28.473Z,11.2
2019-02-18T11:12:28.413Z,11.2
2019-02-18T11:13:28.324Z,11.2
2019-02-18T11:14:28.253Z,11.2
2019-02-18T11:15:28.175Z,11.2
2019-02-18T11:16:28.838Z,11.1
2019-02-18T11:17:39.698Z,11.2
2019-02-18T11:18:40.378Z,11.1
2019-02-18T11:19:41.451Z,11.1
2019-02-18T11:20:41.387Z,11.2
2019-02-18T11:21:41.313Z,11.1
2019-02-18T11:22:41.253Z,11.1
2019-02-18T11:23:41.203Z,11.1
2019-02-18T11:24:41.127Z,11
2019-02-18T11:25:41.068Z,11
2019-02-18T11:26:41.862Z,11.1
2019-02-18T11:27:42.946Z,11.1
2019-02-18T11:28:42.877Z,11.1
2019-02-18T11:29:42.827Z,11.1
2019-02-18T11:30:42.858Z,11.1
2019-02-18T11:31:42.807Z,11
2019-02-18T11:32:42.744Z,11
2019-02-18T11:33:42.667Z,11.1
2019-02-18T11:34:43.146Z,11.1
2019-02-18T11:35:44.036Z,11.1
2019-02-18T11:36:44.416Z,11.1
2019-02-18T11:37:44.372Z,11.1
2019-02-18T11:38:44.331Z,11.1
2019-02-18T11:39:44.253Z,11.1
2019-02-18T11:40:44.192Z,11.2
2019-02-18T11:41:44.122Z,11.3
2019-02-18T11:42:44.590Z,11.2
2019-02-18T11:43:44.598Z,11.2
2019-02-18T11:44:44.520Z,11.2
2019-02-18T11:45:44.488Z,11.2
2019-02-18T11:46:44.898Z,11.2
2019-02-18T11:47:44.868Z,11.1
2019-02-18T11:48:44.865Z,11.1
2019-02-18T11:49:44.768Z,11.1
2019-02-18T11:50:44.776Z,11.1
2019-02-18T11:51:44.712Z,11.1
2019-02-18T11:52:44.687Z,11
2019-02-18T11:53:44.616Z,11
2019-02-18T11:54:44.537Z,11
2019-02-18T11:55:44.466Z,11
2019-02-18T11:56:44.840Z,11
2019-02-18T11:57:44.812Z,11
2019-02-18T11:58:44.822Z,11
2019-02-18T11:59:44.769Z,11
2019-02-18T12:00:44.724Z,11
2019-02-18T12:01:44.718Z,11
2019-02-18T12:02:44.730Z,11
2019-02-18T12:03:44.761Z,11
2019-02-18T12:04:44.714Z,10.9
2019-02-18T12:05:44.692Z,10.9
2019-02-18T12:06:45.682Z,11
2019-02-18T12:07:46.591Z,10.9
2019-02-18T12:08:46.610Z,10.9
2019-02-18T12:09:46.570Z,10.9
2019-02-18T12:10:46.554Z,10.9
2019-02-18T12:11:46.500Z,11
2019-02-18T12:12:46.482Z,11
2019-02-18T12:13:46.420Z,11
2019-02-18T12:14:47.064Z,11.1
2019-02-18T12:15:48.312Z,11.2
2019-02-18T12:16:48.842Z,11.2
2019-02-18T12:17:48.818Z,11.2
2019-02-18T12:18:48.760Z,11.2
2019-02-18T12:19:48.694Z,11.3
2019-02-18T12:20:48.656Z,11.3
2019-02-18T12:21:48.888Z,11.3
2019-02-18T12:22:48.941Z,11.3
2019-02-18T12:23:48.874Z,11.2
2019-02-18T12:24:48.809Z,11.1
2019-02-18T12:25:48.820Z,11.1
2019-02-18T12:26:50.524Z,11.1
2019-02-18T12:27:50.510Z,11
2019-02-18T12:28:50.474Z,11
2019-02-18T12:29:53.250Z,11
2019-02-18T12:30:53.497Z,11
2019-02-18T12:31:53.430Z,10.9
2019-02-18T12:32:53.404Z,10.9
2019-02-18T12:33:53.378Z,11
2019-02-18T12:34:53.299Z,11
2019-02-18T12:35:53.264Z,10.9
2019-02-18T12:36:53.656Z,10.9
2019-02-18T12:37:56.257Z,10.9
2019-02-18T12:38:56.793Z,10.9
2019-02-18T12:39:58.177Z,10.9
2019-02-18T12:40:58.108Z,10.9
2019-02-18T12:41:58.075Z,10.8
2019-02-18T12:42:58.035Z,10.8
2019-02-18T12:43:57.954Z,10.9
2019-02-18T12:44:57.950Z,10.9
2019-02-18T12:45:57.891Z,10.8
2019-02-18T12:46:58.972Z,10.8
2019-02-18T12:47:59.750Z,10.8
2019-02-18T12:48:59.746Z,10.8
2019-02-18T12:49:59.790Z,10.8
2019-02-18T12:50:59.976Z,10.8
2019-02-18T12:51:59.974Z,10.8
2019-02-18T12:53:00.035Z,10.8
2019-02-18T12:54:46.476Z,10.8
2019-02-18T12:55:47.169Z,10.7
2019-02-18T12:56:47.286Z,10.8
2019-02-18T12:57:47.884Z,10.7
2019-02-18T12:58:55.398Z,10.7
2019-02-18T12:59:56.347Z,10.7
2019-02-18T13:00:57.426Z,10.7
2019-02-18T13:01:58.274Z,10.7
2019-02-18T13:02:58.343Z,10.7
2019-02-18T13:03:58.426Z,10.7
2019-02-18T13:04:58.496Z,10.7
2019-02-18T13:05:58.537Z,10.7
2019-02-18T13:06:58.599Z,10.7
2019-02-18T13:07:59.374Z,10.7
2019-02-18T13:08:59.380Z,10.7
2019-02-18T13:09:59.372Z,10.7
2019-02-18T13:10:59.393Z,10.7
2019-02-18T13:12:00.026Z,10.7
2019-02-18T13:13:00.052Z,10.8
2019-02-18T13:14:00.075Z,10.8
2019-02-18T13:15:00.211Z,10.9
2019-02-18T13:16:00.962Z,11
2019-02-18T13:17:02.312Z,11
2019-02-18T13:19:03.816Z,11
2019-02-18T13:20:03.857Z,11
2019-02-18T13:21:03.901Z,11
2019-02-18T13:22:03.937Z,11
2019-02-18T13:23:04.259Z,11.1
2019-02-18T13:24:04.245Z,11.1
2019-02-18T13:25:04.255Z,11
2019-02-18T13:26:04.241Z,11
2019-02-18T13:27:04.178Z,11
2019-02-18T13:28:09.304Z,10.9
2019-02-18T13:29:09.298Z,10.9
2019-02-18T13:30:09.288Z,10.9
2019-02-18T13:31:09.304Z,10.9
2019-02-18T13:32:09.286Z,10.9
2019-02-18T13:33:09.626Z,10.8
2019-02-18T13:34:09.610Z,10.8
2019-02-18T13:35:09.575Z,10.8
2019-02-18T13:36:09.522Z,10.7
2019-02-18T13:37:09.466Z,10.7
2019-02-18T13:38:09.918Z,10.8
2019-02-18T13:39:10.430Z,10.8
2019-02-18T13:40:10.885Z,10.8
2019-02-18T13:41:10.829Z,10.7
2019-02-18T13:42:10.816Z,10.7
2019-02-18T13:43:10.769Z,10.8
2019-02-18T13:44:10.720Z,10.8
2019-02-18T13:45:10.686Z,10.8
2019-02-18T13:46:10.664Z,10.8
2019-02-18T13:47:11.229Z,10.7
2019-02-18T13:48:12.858Z,10.7
2019-02-18T13:49:12.850Z,10.6
2019-02-18T13:50:12.854Z,10.7
2019-02-18T13:51:12.848Z,10.7
2019-02-18T13:52:12.780Z,10.7
2019-02-18T13:53:12.728Z,10.7
2019-02-18T13:54:12.736Z,10.7
2019-02-18T13:55:13.348Z,10.7
2019-02-18T13:56:14.516Z,10.7
2019-02-18T13:57:14.538Z,10.7
2019-02-18T13:58:15.055Z,10.7
2019-02-18T13:59:15.018Z,10.6
2019-02-18T14:00:15.001Z,10.6
2019-02-18T14:01:14.999Z,10.6
2019-02-18T14:02:14.968Z,10.6
2019-02-18T14:03:15.524Z,10.5
2019-02-18T14:04:16.368Z,10.5
2019-02-18T14:05:16.349Z,10.5
2019-02-18T14:06:16.320Z,10.5
2019-02-18T14:07:16.287Z,10.5
2019-02-18T14:08:17.990Z,10.5
2019-02-18T14:09:17.938Z,10.5
2019-02-18T14:10:17.905Z,10.6
2019-02-18T14:11:18.376Z,10.5
2019-02-18T14:12:19.254Z,10.5
2019-02-18T14:13:19.208Z,10.5
2019-02-18T14:14:19.160Z,10.5
2019-02-18T14:15:19.116Z,10.4
2019-02-18T14:16:19.070Z,10.4
2019-02-18T14:17:19.035Z,10.3
2019-02-18T14:18:20.636Z,10.3
2019-02-18T14:19:20.938Z,10.4
2019-02-18T14:20:21.895Z,10.4
2019-02-18T14:21:21.867Z,10.4
2019-02-18T14:22:21.838Z,10.5
2019-02-18T14:23:21.788Z,10.5
2019-02-18T14:24:21.804Z,10.5
2019-02-18T14:25:21.777Z,10.5
2019-02-18T14:26:21.753Z,10.6
2019-02-18T14:27:22.318Z,10.6
2019-02-18T14:28:23.778Z,10.6
2019-02-18T14:29:23.744Z,10.7
2019-02-18T14:30:23.719Z,10.7
2019-02-18T14:31:23.724Z,10.7
2019-02-18T14:32:23.694Z,10.7
2019-02-18T14:33:23.640Z,10.6
2019-02-18T14:34:23.636Z,10.6
2019-02-18T14:35:24.212Z,10.6
2019-02-18T14:36:25.230Z,10.6
2019-02-18T14:37:25.199Z,10.7
2019-02-18T14:38:25.791Z,10.7
2019-02-18T14:39:25.842Z,10.7
2019-02-18T14:40:25.819Z,10.7
2019-02-18T14:41:25.776Z,10.7
2019-02-18T14:42:25.760Z,10.7
2019-02-18T14:43:26.299Z,10.7
2019-02-18T14:44:27.153Z,10.7
2019-02-18T14:45:27.169Z,10.8
2019-02-18T14:46:27.150Z,10.8
2019-02-18T14:47:27.126Z,10.7
2019-02-18T14:48:28.864Z,10.8
2019-02-18T14:49:28.841Z,10.8
2019-02-18T14:50:28.855Z,10.8
2019-02-18T14:51:29.385Z,10.9
2019-02-18T14:52:30.134Z,10.9
2019-02-18T14:53:30.102Z,10.8
2019-02-18T14:54:30.083Z,10.8
2019-02-18T14:55:30.056Z,10.7
2019-02-18T14:56:30.037Z,10.7
2019-02-18T14:57:30.020Z,10.7
2019-02-18T14:58:30.491Z,10.7
2019-02-18T14:59:30.999Z,10.7
2019-02-18T15:00:31.958Z,10.6
2019-02-18T15:01:31.920Z,10.7
2019-02-18T15:02:31.914Z,10.7
2019-02-18T15:03:31.873Z,10.7
2019-02-18T15:04:31.884Z,10.6
2019-02-18T15:05:31.860Z,10.7
2019-02-18T15:06:31.842Z,10.7
2019-02-18T15:07:32.309Z,10.7
2019-02-18T15:08:33.762Z,10.6
2019-02-18T15:09:33.709Z,10.6
2019-02-18T15:10:33.652Z,10.5
2019-02-18T15:11:33.606Z,10.6
2019-02-18T15:12:33.904Z,10.6
2019-02-18T15:13:33.836Z,10.5
2019-02-18T15:14:33.806Z,10.5
2019-02-18T15:15:34.125Z,10.4
2019-02-18T15:16:35.287Z,10.5
2019-02-18T15:17:35.248Z,10.5
2019-02-18T15:18:35.701Z,10.4
2019-02-18T15:19:35.662Z,10.4
2019-02-18T15:20:35.623Z,10.4
2019-02-18T15:21:35.577Z,10.3
2019-02-18T15:22:35.524Z,10.4
2019-02-18T15:23:36.159Z,10.4
2019-02-18T15:24:40.429Z,10.4
2019-02-18T15:25:40.439Z,10.4
2019-02-18T15:26:40.411Z,10.4
2019-02-18T15:27:40.430Z,10.4
2019-02-18T15:28:45.445Z,10.3
2019-02-18T15:29:45.635Z,10.3